createdAt,value
2019-03-21T00:01:30.719Z,29.90
2019-03-21T00:03:58.485Z,29.33
2019-03-21T00:06:26.229Z,29.67
2019-03-21T00:08:54.302Z,27.93
2019-03-21T00:11:22.147Z,32.17
2019-03-21T00:13:49.993Z,32.10
2019-03-21T00:16:17.737Z,31.67
2019-03-21T00:18:45.478Z,28.30
2019-03-21T00:21:13.228Z,29.70
2019-03-21T00:34:59.270Z,31.07
2019-03-21T00:37:29.020Z,31.57
2019-03-21T00:39:56.884Z,31.97
2019-03-21T00:42:24.761Z,33.93
2019-03-21T00:44:52.515Z,31.87
2019-03-21T00:47:20.359Z,31.53
2019-03-21T00:49:48.117Z,28.23
2019-03-21T00:52:15.860Z,29.63
2019-03-21T00:54:43.657Z,28.47
2019-03-21T00:57:11.390Z,27.70
2019-03-21T00:59:39.204Z,29.87
2019-03-21T01:02:06.915Z,29.40
2019-03-21T01:04:34.716Z,28.50
2019-03-21T01:07:02.487Z,30.17
2019-03-21T01:09:30.299Z,28.40
2019-03-21T01:11:58.005Z,29.07
2019-03-21T01:14:29.939Z,29.67
2019-03-21T01:16:55.501Z,32.63
2019-03-21T01:19:23.249Z,33.13
2019-03-21T01:21:50.962Z,32.40
2019-03-21T01:24:18.683Z,33.43
2019-03-21T01:26:46.555Z,31.77
2019-03-21T01:29:14.326Z,33.07
2019-03-21T01:31:42.111Z,32.53
2019-03-21T01:34:09.902Z,30.60
2019-03-21T01:36:37.725Z,30.90
2019-03-21T01:39:05.455Z,30.57
2019-03-21T01:41:33.260Z,30.10
2019-03-21T01:44:00.972Z,29.93
2019-03-21T01:46:28.701Z,30.37
2019-03-21T01:48:56.470Z,31.80
2019-03-21T01:51:24.179Z,30.60
2019-03-21T01:53:52.001Z,34.43
2019-03-21T01:56:19.803Z,33.50
2019-03-21T01:58:47.629Z,31.97
2019-03-21T02:01:15.393Z,31.80
2019-03-21T02:03:43.274Z,34.13
2019-03-21T02:06:11.035Z,39.00
2019-03-21T02:08:38.798Z,33.90
2019-03-21T02:11:06.572Z,28.40
2019-03-21T02:13:34.446Z,29.43
2019-03-21T02:16:02.155Z,29.43
2019-03-21T02:18:29.875Z,28.87
2019-03-21T02:20:57.739Z,27.53
2019-03-21T02:23:25.531Z,26.10
2019-03-21T02:25:53.257Z,27.70
2019-03-21T02:28:21.037Z,27.97
2019-03-21T02:30:48.760Z,27.40
2019-03-21T02:33:16.547Z,29.13
2019-03-21T02:35:44.356Z,28.47
2019-03-21T02:38:12.081Z,26.87
2019-03-21T02:40:39.870Z,26.77
2019-03-21T02:43:07.629Z,26.33
2019-03-21T02:45:35.413Z,27.30
2019-03-21T02:48:03.210Z,26.50
2019-03-21T02:50:31.048Z,26.77
2019-03-21T02:52:58.757Z,26.80
2019-03-21T02:55:26.497Z,25.77
2019-03-21T02:57:54.352Z,24.90
2019-03-21T03:00:22.212Z,24.80
2019-03-21T03:02:49.959Z,25.63
2019-03-21T03:05:17.757Z,25.00
2019-03-21T03:07:45.486Z,24.50
2019-03-21T03:10:13.288Z,24.03
2019-03-21T03:12:40.997Z,24.40
2019-03-21T03:15:21.891Z,25.80
2019-03-21T03:17:38.131Z,23.33
2019-03-21T03:20:06.005Z,23.50
2019-03-21T03:22:33.836Z,24.03
2019-03-21T03:25:01.545Z,24.40
2019-03-21T03:27:29.372Z,24.20
2019-03-21T03:29:57.091Z,24.03
2019-03-21T03:32:24.921Z,23.97
2019-03-21T03:34:52.669Z,23.30
2019-03-21T03:37:20.447Z,24.50
2019-03-21T03:39:48.300Z,23.90
2019-03-21T03:42:16.094Z,23.87
2019-03-21T03:44:43.955Z,24.73
2019-03-21T03:47:11.657Z,24.03
2019-03-21T03:49:39.384Z,24.00
2019-03-21T03:52:07.141Z,24.37
2019-03-21T03:54:34.913Z,24.83
2019-03-21T03:57:02.662Z,23.90
2019-03-21T03:59:30.392Z,22.97
2019-03-21T04:01:58.225Z,24.00
2019-03-21T04:04:26.136Z,23.60
2019-03-21T04:06:53.830Z,25.60
2019-03-21T04:09:21.593Z,24.60
2019-03-21T04:11:49.348Z,24.00
2019-03-21T04:14:17.068Z,22.73
2019-03-21T04:16:44.909Z,23.97
2019-03-21T04:19:12.778Z,23.13
2019-03-21T04:21:40.553Z,24.40
2019-03-21T04:24:08.425Z,23.63
2019-03-21T04:26:36.171Z,22.70
2019-03-21T04:29:03.869Z,23.00
2019-03-21T04:31:31.693Z,22.83
2019-03-21T04:33:59.397Z,25.03
2019-03-21T04:36:27.109Z,22.93
2019-03-21T04:38:54.920Z,24.37
2019-03-21T04:41:22.680Z,24.50
2019-03-21T04:43:50.563Z,25.00
2019-03-21T04:46:18.322Z,23.83
2019-03-21T04:48:46.180Z,24.33
2019-03-21T04:51:13.943Z,23.87
2019-03-21T04:53:41.689Z,23.97
2019-03-21T04:56:09.497Z,24.60
2019-03-21T04:58:37.334Z,24.80
2019-03-21T05:01:05.070Z,25.37
2019-03-21T05:03:32.866Z,23.90
2019-03-21T05:06:00.628Z,23.80
2019-03-21T05:08:28.409Z,25.93
2019-03-21T05:10:56.222Z,23.97
2019-03-21T05:13:24.106Z,24.33
2019-03-21T05:15:51.836Z,25.07
2019-03-21T05:18:19.555Z,24.07
2019-03-21T05:20:47.307Z,24.20
2019-03-21T05:23:15.226Z,26.80
2019-03-21T05:25:43.003Z,25.97
2019-03-21T05:28:10.732Z,25.60
2019-03-21T05:30:38.472Z,25.13
2019-03-21T05:33:06.278Z,25.63
2019-03-21T05:35:33.978Z,25.17
2019-03-21T05:38:01.853Z,25.10
2019-03-21T05:40:29.632Z,26.87
2019-03-21T05:42:58.129Z,26.23
2019-03-21T05:45:25.929Z,28.40
2019-03-21T05:47:53.694Z,33.17
2019-03-21T05:50:21.466Z,26.67
2019-03-21T05:52:49.278Z,29.23
2019-03-21T05:55:16.986Z,28.27
2019-03-21T05:57:44.753Z,25.73
2019-03-21T06:00:12.521Z,26.87
2019-03-21T06:02:40.275Z,26.80
2019-03-21T06:05:08.065Z,26.77
2019-03-21T06:07:35.975Z,26.47
2019-03-21T06:10:03.908Z,27.30
2019-03-21T06:12:31.637Z,26.87
2019-03-21T06:14:59.433Z,26.27
2019-03-21T06:17:27.128Z,26.73
2019-03-21T06:19:54.974Z,27.57
2019-03-21T06:22:22.761Z,26.53
2019-03-21T06:24:50.500Z,27.90
2019-03-21T06:27:18.309Z,28.97
2019-03-21T06:29:46.025Z,29.30
2019-03-21T06:32:13.798Z,27.60
2019-03-21T06:34:41.518Z,27.60
2019-03-21T06:37:09.251Z,27.70
2019-03-21T06:39:37.082Z,27.90
2019-03-21T06:42:04.875Z,29.57
2019-03-21T06:44:32.594Z,27.20
2019-03-21T06:47:00.412Z,27.90
2019-03-21T06:49:28.264Z,29.60
2019-03-21T06:51:56.005Z,28.93
2019-03-21T06:54:23.827Z,28.23
2019-03-21T06:56:51.658Z,27.73
2019-03-21T06:59:19.464Z,29.37
2019-03-21T07:01:47.308Z,29.87
2019-03-21T07:04:15.018Z,28.73
2019-03-21T07:06:42.817Z,29.27
2019-03-21T07:09:10.594Z,29.60
2019-03-21T07:11:38.398Z,29.90
2019-03-21T07:14:06.262Z,32.33
2019-03-21T07:16:34.108Z,32.87
2019-03-21T07:19:01.886Z,29.60
2019-03-21T07:21:29.840Z,30.93
2019-03-21T07:23:57.616Z,30.33
2019-03-21T07:26:25.378Z,30.40
2019-03-21T07:28:53.358Z,30.10
2019-03-21T07:31:21.243Z,30.50
2019-03-21T07:33:49.080Z,31.40
2019-03-21T07:36:16.863Z,29.63
2019-03-21T07:38:44.593Z,30.73
2019-03-21T07:41:12.382Z,29.13
2019-03-21T07:43:40.133Z,29.53
2019-03-21T07:46:07.920Z,30.70
2019-03-21T07:48:36.217Z,30.53
2019-03-21T07:51:04.076Z,32.00
2019-03-21T07:53:31.837Z,31.07
2019-03-21T07:55:59.615Z,31.50
2019-03-21T07:58:27.347Z,29.87
2019-03-21T08:00:55.116Z,29.40
2019-03-21T08:03:22.906Z,30.10
2019-03-21T08:05:50.629Z,32.67
2019-03-21T08:08:18.434Z,32.53
2019-03-21T08:10:46.192Z,30.93
2019-03-21T08:13:13.962Z,29.87
2019-03-21T08:15:41.739Z,31.87
2019-03-21T08:18:09.466Z,29.83
2019-03-21T08:20:37.267Z,30.27
2019-03-21T08:23:04.969Z,28.70
2019-03-21T08:25:32.784Z,31.43
2019-03-21T08:28:00.571Z,30.53
2019-03-21T08:30:28.309Z,31.90
2019-03-21T08:32:56.019Z,31.77
2019-03-21T08:35:23.716Z,31.50
2019-03-21T08:37:51.525Z,31.23
2019-03-21T08:40:19.280Z,31.37
2019-03-21T08:42:47.056Z,32.53
2019-03-21T08:45:14.809Z,31.77
2019-03-21T08:47:42.541Z,30.67
2019-03-21T08:50:10.267Z,33.17
2019-03-21T08:52:38.122Z,32.10
2019-03-21T08:55:05.842Z,31.40
2019-03-21T08:57:33.659Z,32.27
2019-03-21T09:00:01.417Z,32.87
2019-03-21T09:02:29.191Z,30.20
2019-03-21T09:04:59.608Z,31.67
2019-03-21T09:07:26.669Z,32.13
2019-03-21T09:09:54.421Z,32.37
2019-03-21T09:12:22.138Z,34.27
2019-03-21T09:14:49.865Z,33.47
2019-03-21T09:17:17.619Z,31.20
2019-03-21T09:19:45.486Z,33.67
2019-03-21T09:22:15.870Z,33.17
2019-03-21T09:24:42.778Z,33.07
2019-03-21T09:27:10.496Z,33.00
2019-03-21T09:29:38.250Z,34.57
2019-03-21T09:32:06.087Z,35.93
2019-03-21T09:34:33.843Z,36.80
2019-03-21T09:37:03.985Z,35.93
2019-03-21T09:39:31.092Z,38.17
2019-03-21T09:41:58.872Z,34.57
2019-03-21T09:44:26.592Z,36.33
2019-03-21T09:46:54.311Z,32.43
2019-03-21T09:49:22.062Z,33.50
2019-03-21T09:51:49.829Z,31.67
2019-03-21T09:54:17.549Z,32.83
2019-03-21T09:56:45.292Z,33.83
2019-03-21T09:59:13.126Z,32.97
2019-03-21T10:01:40.892Z,33.20
2019-03-21T10:04:08.783Z,32.50
2019-03-21T10:06:36.524Z,33.13
2019-03-21T10:09:04.673Z,30.47
2019-03-21T10:11:32.488Z,27.70
2019-03-21T10:14:00.238Z,29.23
2019-03-21T10:16:28.023Z,25.97
2019-03-21T10:18:55.777Z,26.30
2019-03-21T10:21:23.531Z,24.47
2019-03-21T10:23:51.310Z,26.60
2019-03-21T10:26:19.181Z,25.60
2019-03-21T10:28:46.904Z,25.43
2019-03-21T10:31:14.707Z,27.10
2019-03-21T10:33:42.470Z,23.17
2019-03-21T10:36:10.235Z,23.67
2019-03-21T10:38:37.981Z,24.30
2019-03-21T10:41:05.802Z,23.47
2019-03-21T10:43:33.648Z,22.90
2019-03-21T10:46:01.506Z,23.17
2019-03-21T10:48:29.263Z,23.57
2019-03-21T10:50:57.000Z,22.93
2019-03-21T10:53:24.708Z,21.37
2019-03-21T10:55:52.573Z,22.77
2019-03-21T10:58:20.340Z,26.03
2019-03-21T11:00:48.478Z,27.57
2019-03-21T11:03:16.705Z,25.83
2019-03-21T11:05:44.452Z,25.43
2019-03-21T11:08:12.245Z,25.10
2019-03-21T11:10:40.098Z,24.80
2019-03-21T11:13:07.862Z,23.60
2019-03-21T11:15:35.622Z,24.47
2019-03-21T11:18:03.390Z,24.60
2019-03-21T11:20:31.156Z,24.10
2019-03-21T11:22:58.878Z,25.57
2019-03-21T11:25:26.708Z,23.53
2019-03-21T11:27:54.408Z,24.20
2019-03-21T11:30:22.117Z,25.53
2019-03-21T11:32:49.904Z,26.00
2019-03-21T11:35:17.658Z,26.63
2019-03-21T11:37:45.531Z,25.03
2019-03-21T11:40:13.319Z,27.40
2019-03-21T11:42:41.043Z,24.07
2019-03-21T11:45:08.895Z,26.20
2019-03-21T11:47:41.728Z,26.33
2019-03-21T11:50:06.139Z,25.33
2019-03-21T11:52:33.879Z,26.47
2019-03-21T11:55:01.618Z,24.77
2019-03-21T11:57:29.428Z,26.00
2019-03-21T11:59:57.247Z,24.77
2019-03-21T12:02:27.465Z,22.73
2019-03-21T12:04:54.425Z,24.10
2019-03-21T12:07:22.163Z,22.40
2019-03-21T12:09:50.063Z,22.03
2019-03-21T12:12:17.749Z,23.63
2019-03-21T12:14:45.602Z,23.37
2019-03-21T12:17:13.365Z,21.27
2019-03-21T12:19:41.086Z,20.37
2019-03-21T12:22:08.910Z,20.53
2019-03-21T12:24:36.760Z,20.43
2019-03-21T12:27:04.571Z,19.77
2019-03-21T12:29:32.402Z,18.47
2019-03-21T12:32:00.167Z,18.40
2019-03-21T12:34:27.938Z,18.40
2019-03-21T12:36:55.716Z,18.60
2019-03-21T12:39:23.483Z,17.07
2019-03-21T12:41:51.187Z,17.47
2019-03-21T12:44:19.002Z,18.83
2019-03-21T12:46:46.772Z,19.53
2019-03-21T12:49:14.553Z,20.63
2019-03-21T12:51:42.300Z,17.77
2019-03-21T12:54:09.853Z,17.42
2019-03-21T12:56:37.623Z,18.50
2019-03-21T12:59:05.330Z,17.97
2019-03-21T13:01:33.176Z,17.70
2019-03-21T13:04:01.110Z,18.40
2019-03-21T13:06:28.901Z,18.97
2019-03-21T13:08:56.690Z,17.20
2019-03-21T13:11:24.414Z,17.27
2019-03-21T13:13:52.201Z,17.30
2019-03-21T13:16:19.977Z,17.00
2019-03-21T13:18:47.684Z,16.37
2019-03-21T13:21:15.228Z,18.70
2019-03-21T13:23:42.659Z,16.90
2019-03-21T13:26:10.219Z,17.07
2019-03-21T13:28:37.669Z,17.52
2019-03-21T13:31:05.390Z,21.83
2019-03-21T13:33:33.193Z,20.40
2019-03-21T13:36:00.925Z,17.03
2019-03-21T13:38:28.629Z,23.00
2019-03-21T13:40:56.410Z,16.73
2019-03-21T13:43:24.139Z,16.87
2019-03-21T13:45:51.947Z,16.07
2019-03-21T13:48:19.702Z,17.00
2019-03-21T13:50:47.166Z,16.17
2019-03-21T13:53:18.939Z,16.17
2019-03-21T13:55:44.125Z,18.67
2019-03-21T13:58:11.907Z,16.57
2019-03-21T14:00:41.128Z,16.50
2019-03-21T14:03:09.386Z,15.07
2019-03-21T14:05:37.260Z,17.87
2019-03-21T14:08:05.034Z,16.00
2019-03-21T14:10:32.740Z,17.63
2019-03-21T14:13:00.454Z,14.87
2019-03-21T14:15:28.312Z,15.40
2019-03-21T14:17:56.192Z,17.80
2019-03-21T14:20:23.923Z,15.67
2019-03-21T14:22:51.691Z,15.77
2019-03-21T14:25:19.528Z,14.90
2019-03-21T14:27:47.266Z,17.23
2019-03-21T14:30:14.981Z,14.40
2019-03-21T14:32:42.767Z,15.47
2019-03-21T14:35:10.537Z,16.20
2019-03-21T14:37:38.240Z,15.37
2019-03-21T14:40:05.976Z,15.30
2019-03-21T14:42:33.898Z,14.43
2019-03-21T14:45:01.719Z,15.23
2019-03-21T14:47:36.035Z,15.87
2019-03-21T14:49:58.971Z,16.03
2019-03-21T14:52:26.689Z,19.87
2019-03-21T14:54:54.524Z,17.23
2019-03-21T14:57:22.281Z,16.60
2019-03-21T14:59:50.001Z,15.70
2019-03-21T15:02:17.709Z,17.17
2019-03-21T15:04:45.459Z,16.33
2019-03-21T15:07:13.270Z,16.70
2019-03-21T15:09:40.982Z,17.17
2019-03-21T15:12:08.770Z,17.97
2019-03-21T15:14:36.520Z,18.27
2019-03-21T15:17:04.226Z,19.03
2019-03-21T15:19:32.074Z,17.90
2019-03-21T15:21:59.846Z,18.60
2019-03-21T15:24:27.621Z,18.73
2019-03-21T15:26:55.381Z,17.10
2019-03-21T15:29:23.151Z,19.40
2019-03-21T15:31:50.924Z,18.23
2019-03-21T15:34:18.640Z,17.73
2019-03-21T15:36:46.390Z,19.40
2019-03-21T15:39:14.236Z,17.70
2019-03-21T15:41:42.106Z,18.37
2019-03-21T15:44:09.958Z,18.13
2019-03-21T15:46:37.720Z,17.47
2019-03-21T15:49:05.477Z,17.77
2019-03-21T15:51:33.342Z,16.37
2019-03-21T15:54:01.103Z,17.60
2019-03-21T15:56:28.889Z,16.77
2019-03-21T15:58:56.743Z,17.97
2019-03-21T16:01:24.564Z,19.00
2019-03-21T16:03:52.367Z,19.77
2019-03-21T16:06:20.087Z,19.03
2019-03-21T16:08:47.920Z,19.80
2019-03-21T16:11:15.629Z,18.23
2019-03-21T16:13:43.417Z,18.03
2019-03-21T16:16:11.120Z,17.20
2019-03-21T16:18:38.905Z,17.53
2019-03-21T16:21:06.605Z,18.90
2019-03-21T16:23:34.332Z,18.53
2019-03-21T16:26:02.058Z,19.37
2019-03-21T16:28:29.833Z,20.13
2019-03-21T16:30:57.614Z,20.60
2019-03-21T16:33:25.378Z,18.80
2019-03-21T16:35:53.153Z,20.27
2019-03-21T16:38:20.900Z,21.53
2019-03-21T16:40:48.672Z,20.37
2019-03-21T16:43:16.550Z,21.60
2019-03-21T16:45:44.406Z,20.07
2019-03-21T16:48:12.169Z,21.53
2019-03-21T16:50:39.921Z,21.90
2019-03-21T16:53:12.032Z,21.63
2019-03-21T16:55:39.817Z,22.53
2019-03-21T16:58:08.744Z,23.40
2019-03-21T17:00:36.568Z,20.60
2019-03-21T17:03:04.403Z,21.30
2019-03-21T17:05:32.168Z,22.40
2019-03-21T17:08:10.572Z,21.53
2019-03-21T17:10:30.758Z,19.63
2019-03-21T17:12:58.868Z,20.67
2019-03-21T17:15:26.647Z,22.63
2019-03-21T17:17:54.344Z,22.27
2019-03-21T17:20:22.069Z,23.97
2019-03-21T17:22:49.977Z,21.80
2019-03-21T17:25:17.673Z,22.73
2019-03-21T17:27:45.445Z,31.20
2019-03-21T17:30:14.419Z,20.20
2019-03-21T17:32:42.203Z,19.53
2019-03-21T17:35:09.952Z,21.23
2019-03-21T17:37:37.746Z,24.27
2019-03-21T17:40:05.520Z,22.20
2019-03-21T17:42:33.409Z,22.27
2019-03-21T17:45:01.271Z,22.40
2019-03-21T17:47:29.136Z,23.60
2019-03-21T17:49:59.246Z,21.93
2019-03-21T17:52:27.204Z,23.40
2019-03-21T17:54:54.945Z,24.50
2019-03-21T17:57:33.998Z,27.93
2019-03-21T17:59:52.348Z,29.37
2019-03-21T18:02:20.084Z,30.53
2019-03-21T18:04:47.927Z,30.40
2019-03-21T18:07:15.868Z,30.93
2019-03-21T18:09:43.791Z,32.13
2019-03-21T18:12:11.528Z,30.23
2019-03-21T18:14:39.580Z,29.57
2019-03-21T18:17:07.322Z,25.57
2019-03-21T18:19:35.117Z,24.27
2019-03-21T18:22:02.875Z,23.13
2019-03-21T18:24:30.741Z,23.33
2019-03-21T18:26:58.472Z,24.20
2019-03-21T18:29:26.298Z,22.33
2019-03-21T18:31:54.130Z,26.37
2019-03-21T18:34:21.973Z,24.03
2019-03-21T18:36:53.144Z,21.20
2019-03-21T18:39:20.880Z,20.17
2019-03-21T18:41:51.254Z,21.83
2019-03-21T18:44:19.537Z,21.73
2019-03-21T18:46:47.290Z,21.33
2019-03-21T18:49:15.050Z,23.80
2019-03-21T18:51:42.847Z,25.33
2019-03-21T18:54:10.560Z,24.00
2019-03-21T18:56:38.360Z,23.47
2019-03-21T18:59:06.075Z,24.60
2019-03-21T19:01:33.891Z,26.30
2019-03-21T19:04:01.623Z,26.03
2019-03-21T19:06:29.347Z,24.97
2019-03-21T19:08:57.179Z,24.00
2019-03-21T19:11:24.926Z,26.90
2019-03-21T19:13:52.724Z,30.00
2019-03-21T19:16:20.473Z,31.23
2019-03-21T19:18:48.322Z,34.30
2019-03-21T19:21:16.105Z,29.80
2019-03-21T19:23:43.900Z,36.60
2019-03-21T19:26:11.626Z,78.20
2019-03-21T19:28:39.354Z,110.47
2019-03-21T19:31:07.299Z,149.13
2019-03-21T19:33:35.048Z,83.13
2019-03-21T19:36:02.852Z,146.93
2019-03-21T19:38:30.647Z,94.63
2019-03-21T19:40:58.573Z,33.73
2019-03-21T19:43:26.299Z,28.07
2019-03-21T19:45:54.095Z,27.07
2019-03-21T19:48:21.827Z,28.90
2019-03-21T19:50:49.598Z,27.00
2019-03-21T19:53:17.379Z,29.90
2019-03-21T19:55:45.174Z,29.70
2019-03-21T19:58:13.035Z,35.63
2019-03-21T20:00:40.795Z,46.30
2019-03-21T20:03:08.542Z,50.97
2019-03-21T20:05:36.281Z,50.67
2019-03-21T20:08:04.103Z,50.87
2019-03-21T20:10:31.813Z,49.33
2019-03-21T20:13:00.030Z,48.90
2019-03-21T20:15:27.897Z,49.20
2019-03-21T20:17:55.665Z,54.63
2019-03-21T20:20:23.428Z,50.83
2019-03-21T20:22:51.215Z,45.57
2019-03-21T20:25:18.938Z,36.93
2019-03-21T20:27:46.651Z,36.67
2019-03-21T20:30:14.501Z,30.93
2019-03-21T20:32:42.368Z,32.27
2019-03-21T20:35:10.095Z,30.60
2019-03-21T20:37:37.900Z,29.67
2019-03-21T20:40:05.644Z,34.47
2019-03-21T20:42:33.350Z,31.70
2019-03-21T20:45:01.230Z,31.40
2019-03-21T20:47:29.062Z,29.80
2019-03-21T20:49:56.785Z,29.30
2019-03-21T20:52:24.625Z,30.83
2019-03-21T20:54:52.344Z,32.33
2019-03-21T20:57:20.139Z,29.93
2019-03-21T20:59:47.898Z,31.33
2019-03-21T21:02:15.656Z,32.20
2019-03-21T21:04:43.421Z,31.10
2019-03-21T21:07:11.146Z,30.93
2019-03-21T21:09:38.962Z,31.37
2019-03-21T21:12:06.737Z,29.73
2019-03-21T21:14:34.617Z,33.03
2019-03-21T21:17:02.359Z,33.87
2019-03-21T21:19:30.129Z,30.80
2019-03-21T21:21:57.906Z,34.27
2019-03-21T21:24:25.668Z,35.53
2019-03-21T21:26:53.483Z,31.60
2019-03-21T21:29:21.354Z,30.90
2019-03-21T21:31:49.895Z,41.30
2019-03-21T21:34:18.744Z,35.03
2019-03-21T21:36:46.536Z,35.00
2019-03-21T21:39:14.325Z,34.97
2019-03-21T21:41:42.187Z,32.50
2019-03-21T21:44:09.951Z,31.07
2019-03-21T21:46:37.703Z,29.10
2019-03-21T21:49:05.442Z,30.97
2019-03-21T21:51:33.189Z,33.90
2019-03-21T21:54:01.027Z,26.53
2019-03-21T21:56:28.876Z,27.00
2019-03-21T21:58:56.635Z,28.03
2019-03-21T22:01:24.582Z,27.60
2019-03-21T22:04:03.843Z,28.77
2019-03-21T22:09:34.895Z,28.00
2019-03-21T22:15:14.278Z,27.90
2019-03-21T22:17:44.533Z,29.73
2019-03-21T22:20:13.795Z,40.40
2019-03-21T22:22:41.729Z,33.67
2019-03-21T23:02:50.266Z,36.00
2019-03-21T23:05:17.824Z,36.55
2019-03-21T23:07:45.460Z,37.40
2019-03-21T23:12:16.157Z,32.77
2019-03-21T23:14:43.973Z,32.50
2019-03-21T23:17:11.821Z,32.67
2019-03-21T23:19:39.601Z,32.73
2019-03-21T23:22:07.383Z,32.17
2019-03-21T23:24:35.116Z,30.13
2019-03-21T23:27:02.926Z,30.73
2019-03-21T23:29:30.764Z,31.30
2019-03-21T23:31:58.575Z,30.90
2019-03-21T23:34:26.414Z,30.43
2019-03-21T23:36:54.230Z,29.90
2019-03-21T23:39:21.969Z,31.53
2019-03-21T23:41:49.700Z,30.63
2019-03-21T23:44:17.597Z,31.17
2019-03-21T23:46:45.558Z,31.50
2019-03-21T23:49:13.277Z,29.90
2019-03-21T23:51:41.081Z,30.40
2019-03-21T23:54:08.820Z,30.27
2019-03-21T23:56:36.623Z,34.07
